sensor_id;sensor_type;location;lat;lon;timestamp;pressure;altitude;pressure_sealevel;temperature
11424;BMP180;5768;51.476;7.210;2023-10-09T00:00:34;100708.00;;;17.60
11424;BMP180;5768;51.476;7.210;2023-10-09T00:05:54;100708.00;;;17.60
11424;BMP180;5768;51.476;7.210;2023-10-09T00:10:59;100707.00;;;17.60
11424;BMP180;5768;51.476;7.210;2023-10-09T00:16:14;100700.00;;;17.70
11424;BMP180;5768;51.476;7.210;2023-10-09T00:21:25;100695.00;;;17.80
11424;BMP180;5768;51.476;7.210;2023-10-09T00:26:35;100696.00;;;17.90
11424;BMP180;5768;51.476;7.210;2023-10-09T00:31:44;100689.00;;;18.10
11424;BMP180;5768;51.476;7.210;2023-10-09T00:36:52;100695.00;;;18.20
11424;BMP180;5768;51.476;7.210;2023-10-09T00:41:54;100670.00;;;18.30
11424;BMP180;5768;51.476;7.210;2023-10-09T00:46:59;100665.00;;;18.40
11424;BMP180;5768;51.476;7.210;2023-10-09T00:52:11;100668.00;;;18.50
11424;BMP180;5768;51.476;7.210;2023-10-09T00:57:25;100666.00;;;18.60
11424;BMP180;5768;51.476;7.210;2023-10-09T01:02:28;100674.00;;;18.70
11424;BMP180;5768;51.476;7.210;2023-10-09T01:12:40;100634.00;;;18.70
11424;BMP180;5768;51.476;7.210;2023-10-09T01:17:45;100637.00;;;18.70
11424;BMP180;5768;51.476;7.210;2023-10-09T01:22:47;100652.00;;;18.70
11424;BMP180;5768;51.476;7.210;2023-10-09T01:27:52;100653.00;;;18.70
11424;BMP180;5768;51.476;7.210;2023-10-09T01:32:55;100642.00;;;18.80
11424;BMP180;5768;51.476;7.210;2023-10-09T01:38:00;100645.00;;;18.80
11424;BMP180;5768;51.476;7.210;2023-10-09T01:43:04;100662.00;;;18.80
11424;BMP180;5768;51.476;7.210;2023-10-09T01:48:10;100651.00;;;18.70
11424;BMP180;5768;51.476;7.210;2023-10-09T01:53:13;100638.00;;;18.60
11424;BMP180;5768;51.476;7.210;2023-10-09T01:58:20;100653.00;;;18.60
11424;BMP180;5768;51.476;7.210;2023-10-09T02:03:33;100653.00;;;18.60
11424;BMP180;5768;51.476;7.210;2023-10-09T02:08:42;100654.00;;;18.60
11424;BMP180;5768;51.476;7.210;2023-10-09T02:13:52;100655.00;;;18.60
11424;BMP180;5768;51.476;7.210;2023-10-09T02:19:01;100650.00;;;18.60
11424;BMP180;5768;51.476;7.210;2023-10-09T02:24:09;100628.00;;;18.60
11424;BMP180;5768;51.476;7.210;2023-10-09T02:29:14;100636.00;;;18.70
11424;BMP180;5768;51.476;7.210;2023-10-09T02:34:21;100625.00;;;18.70
11424;BMP180;5768;51.476;7.210;2023-10-09T02:39:25;100640.00;;;18.80
11424;BMP180;5768;51.476;7.210;2023-10-09T02:44:29;100648.00;;;18.90
11424;BMP180;5768;51.476;7.210;2023-10-09T02:49:35;100639.00;;;18.90
11424;BMP180;5768;51.476;7.210;2023-10-09T02:54:39;100645.00;;;18.90
11424;BMP180;5768;51.476;7.210;2023-10-09T02:59:44;100632.00;;;19.00
11424;BMP180;5768;51.476;7.210;2023-10-09T03:04:47;100626.00;;;19.00
11424;BMP180;5768;51.476;7.210;2023-10-09T03:09:49;100619.00;;;19.10
11424;BMP180;5768;51.476;7.210;2023-10-09T03:14:53;100616.00;;;19.10
11424;BMP180;5768;51.476;7.210;2023-10-09T03:20:04;100610.00;;;19.10
11424;BMP180;5768;51.476;7.210;2023-10-09T03:25:13;100612.00;;;19.10
11424;BMP180;5768;51.476;7.210;2023-10-09T03:30:19;100601.00;;;19.20
11424;BMP180;5768;51.476;7.210;2023-10-09T03:35:24;100610.00;;;19.20
11424;BMP180;5768;51.476;7.210;2023-10-09T03:40:28;100596.00;;;19.20
11424;BMP180;5768;51.476;7.210;2023-10-09T03:45:34;100590.00;;;19.20
11424;BMP180;5768;51.476;7.210;2023-10-09T03:50:37;100582.00;;;19.20
11424;BMP180;5768;51.476;7.210;2023-10-09T03:55:40;100571.00;;;19.20
11424;BMP180;5768;51.476;7.210;2023-10-09T04:00:44;100567.00;;;19.10
11424;BMP180;5768;51.476;7.210;2023-10-09T04:05:47;100566.00;;;19.10
11424;BMP180;5768;51.476;7.210;2023-10-09T04:10:52;100562.00;;;19.10
11424;BMP180;5768;51.476;7.210;2023-10-09T04:15:56;100566.00;;;19.10
11424;BMP180;5768;51.476;7.210;2023-10-09T04:21:00;100556.00;;;19.10
11424;BMP180;5768;51.476;7.210;2023-10-09T04:26:19;100543.00;;;19.00
11424;BMP180;5768;51.476;7.210;2023-10-09T04:31:23;100554.00;;;19.00
11424;BMP180;5768;51.476;7.210;2023-10-09T04:36:32;100569.00;;;19.00
11424;BMP180;5768;51.476;7.210;2023-10-09T04:41:47;100556.00;;;19.00
11424;BMP180;5768;51.476;7.210;2023-10-09T04:47:16;100546.00;;;19.00
11424;BMP180;5768;51.476;7.210;2023-10-09T04:52:26;100545.00;;;19.00
11424;BMP180;5768;51.476;7.210;2023-10-09T04:57:44;100547.00;;;19.10
11424;BMP180;5768;51.476;7.210;2023-10-09T05:02:49;100539.00;;;19.10
11424;BMP180;5768;51.476;7.210;2023-10-09T05:07:55;100558.00;;;19.10
11424;BMP180;5768;51.476;7.210;2023-10-09T05:12:57;100546.00;;;19.10
11424;BMP180;5768;51.476;7.210;2023-10-09T05:18:01;100551.00;;;19.10
11424;BMP180;5768;51.476;7.210;2023-10-09T05:23:10;100552.00;;;19.10
11424;BMP180;5768;51.476;7.210;2023-10-09T05:28:27;100564.00;;;19.10
11424;BMP180;5768;51.476;7.210;2023-10-09T05:34:02;100591.00;;;19.10
11424;BMP180;5768;51.476;7.210;2023-10-09T05:39:07;100608.00;;;19.10
11424;BMP180;5768;51.476;7.210;2023-10-09T05:44:23;100629.00;;;19.20
11424;BMP180;5768;51.476;7.210;2023-10-09T05:49:44;100624.00;;;19.20
11424;BMP180;5768;51.476;7.210;2023-10-09T05:54:55;100596.00;;;19.20
11424;BMP180;5768;51.476;7.210;2023-10-09T06:00:13;100601.00;;;19.10
11424;BMP180;5768;51.476;7.210;2023-10-09T06:05:47;100633.00;;;19.10
11424;BMP180;5768;51.476;7.210;2023-10-09T06:11:02;100647.00;;;19.20
11424;BMP180;5768;51.476;7.210;2023-10-09T06:16:27;100645.00;;;19.20
11424;BMP180;5768;51.476;7.210;2023-10-09T06:21:43;100658.00;;;19.30
11424;BMP180;5768;51.476;7.210;2023-10-09T06:27:31;100659.00;;;19.20
11424;BMP180;5768;51.476;7.210;2023-10-09T06:32:57;100666.00;;;19.20
11424;BMP180;5768;51.476;7.210;2023-10-09T06:38:07;100667.00;;;19.20
11424;BMP180;5768;51.476;7.210;2023-10-09T06:43:34;100659.00;;;19.20
11424;BMP180;5768;51.476;7.210;2023-10-09T06:48:43;100669.00;;;19.30
11424;BMP180;5768;51.476;7.210;2023-10-09T06:54:00;100667.00;;;19.40
11424;BMP180;5768;51.476;7.210;2023-10-09T06:59:06;100642.00;;;19.50
11424;BMP180;5768;51.476;7.210;2023-10-09T07:04:22;100644.00;;;19.60
11424;BMP180;5768;51.476;7.210;2023-10-09T07:09:48;100650.00;;;19.60
11424;BMP180;5768;51.476;7.210;2023-10-09T07:15:05;100653.00;;;19.70
11424;BMP180;5768;51.476;7.210;2023-10-09T07:20:21;100656.00;;;19.70
11424;BMP180;5768;51.476;7.210;2023-10-09T07:25:41;100671.00;;;19.70
11424;BMP180;5768;51.476;7.210;2023-10-09T07:30:56;100687.00;;;19.70
11424;BMP180;5768;51.476;7.210;2023-10-09T07:36:02;100690.00;;;19.80
11424;BMP180;5768;51.476;7.210;2023-10-09T07:41:10;100675.00;;;19.90
11424;BMP180;5768;51.476;7.210;2023-10-09T07:46:32;100632.00;;;20.00
11424;BMP180;5768;51.476;7.210;2023-10-09T07:51:38;100597.00;;;20.00
11424;BMP180;5768;51.476;7.210;2023-10-09T07:56:45;100620.00;;;20.20
11424;BMP180;5768;51.476;7.210;2023-10-09T08:01:51;100649.00;;;20.20
11424;BMP180;5768;51.476;7.210;2023-10-09T08:06:54;100657.00;;;20.10
11424;BMP180;5768;51.476;7.210;2023-10-09T08:12:00;100681.00;;;20.10
11424;BMP180;5768;51.476;7.210;2023-10-09T08:17:14;100687.00;;;20.30
11424;BMP180;5768;51.476;7.210;2023-10-09T08:22:25;100693.00;;;20.40
11424;BMP180;5768;51.476;7.210;2023-10-09T08:27:53;100725.00;;;20.30
11424;BMP180;5768;51.476;7.210;2023-10-09T08:33:12;100714.00;;;20.30
11424;BMP180;5768;51.476;7.210;2023-10-09T08:38:32;100688.00;;;20.30
11424;BMP180;5768;51.476;7.210;2023-10-09T08:43:40;100720.00;;;20.20
11424;BMP180;5768;51.476;7.210;2023-10-09T08:48:45;100726.00;;;20.30
11424;BMP180;5768;51.476;7.210;2023-10-09T08:53:48;100679.00;;;20.20
11424;BMP180;5768;51.476;7.210;2023-10-09T08:58:54;100633.00;;;20.30
11424;BMP180;5768;51.476;7.210;2023-10-09T09:03:56;100605.00;;;20.60
11424;BMP180;5768;51.476;7.210;2023-10-09T09:09:10;100569.00;;;20.90
11424;BMP180;5768;51.476;7.210;2023-10-09T09:14:16;100588.00;;;21.20
11424;BMP180;5768;51.476;7.210;2023-10-09T09:19:31;100605.00;;;21.40
11424;BMP180;5768;51.476;7.210;2023-10-09T09:24:40;100601.00;;;21.50
11424;BMP180;5768;51.476;7.210;2023-10-09T09:29:49;100595.00;;;21.60
11424;BMP180;5768;51.476;7.210;2023-10-09T09:34:55;100595.00;;;21.70
11424;BMP180;5768;51.476;7.210;2023-10-09T09:40:03;100589.00;;;22.00
11424;BMP180;5768;51.476;7.210;2023-10-09T09:45:17;100590.00;;;22.20
11424;BMP180;5768;51.476;7.210;2023-10-09T09:50:24;100607.00;;;22.20
11424;BMP180;5768;51.476;7.210;2023-10-09T09:55:34;100635.00;;;22.30
11424;BMP180;5768;51.476;7.210;2023-10-09T10:00:38;100658.00;;;22.20
11424;BMP180;5768;51.476;7.210;2023-10-09T10:05:47;100663.00;;;22.20
11424;BMP180;5768;51.476;7.210;2023-10-09T10:10:52;100679.00;;;22.30
11424;BMP180;5768;51.476;7.210;2023-10-09T10:16:06;100669.00;;;22.30
11424;BMP180;5768;51.476;7.210;2023-10-09T10:21:23;100660.00;;;22.50
11424;BMP180;5768;51.476;7.210;2023-10-09T10:26:38;100659.00;;;22.60
11424;BMP180;5768;51.476;7.210;2023-10-09T10:31:57;100648.00;;;22.60
11424;BMP180;5768;51.476;7.210;2023-10-09T10:37:01;100662.00;;;22.60
11424;BMP180;5768;51.476;7.210;2023-10-09T10:42:08;100670.00;;;22.70
11424;BMP180;5768;51.476;7.210;2023-10-09T10:47:27;100667.00;;;22.70
11424;BMP180;5768;51.476;7.210;2023-10-09T10:52:36;100674.00;;;22.90
11424;BMP180;5768;51.476;7.210;2023-10-09T10:57:42;100656.00;;;23.00
11424;BMP180;5768;51.476;7.210;2023-10-09T11:03:03;100669.00;;;23.10
11424;BMP180;5768;51.476;7.210;2023-10-09T11:08:23;100655.00;;;23.10
11424;BMP180;5768;51.476;7.210;2023-10-09T11:13:28;100675.00;;;23.10
11424;BMP180;5768;51.476;7.210;2023-10-09T11:18:41;100658.00;;;23.20
11424;BMP180;5768;51.476;7.210;2023-10-09T11:23:48;100667.00;;;23.30
11424;BMP180;5768;51.476;7.210;2023-10-09T11:29:10;100665.00;;;23.30
11424;BMP180;5768;51.476;7.210;2023-10-09T11:34:21;100665.00;;;23.40
11424;BMP180;5768;51.476;7.210;2023-10-09T11:39:34;100663.00;;;23.50
11424;BMP180;5768;51.476;7.210;2023-10-09T11:44:51;100680.00;;;23.50
11424;BMP180;5768;51.476;7.210;2023-10-09T11:49:58;100680.00;;;23.50
11424;BMP180;5768;51.476;7.210;2023-10-09T11:55:14;100665.00;;;23.80
11424;BMP180;5768;51.476;7.210;2023-10-09T12:00:17;100673.00;;;23.90
11424;BMP180;5768;51.476;7.210;2023-10-09T12:05:31;100658.00;;;23.70
11424;BMP180;5768;51.476;7.210;2023-10-09T12:10:35;100662.00;;;23.80
11424;BMP180;5768;51.476;7.210;2023-10-09T12:15:39;100649.00;;;23.90
11424;BMP180;5768;51.476;7.210;2023-10-09T12:20:43;100650.00;;;23.80
11424;BMP180;5768;51.476;7.210;2023-10-09T12:25:51;100650.00;;;23.90
11424;BMP180;5768;51.476;7.210;2023-10-09T12:30:57;100646.00;;;23.90
11424;BMP180;5768;51.476;7.210;2023-10-09T12:36:03;100657.00;;;24.00
11424;BMP180;5768;51.476;7.210;2023-10-09T12:41:07;100668.00;;;24.30
11424;BMP180;5768;51.476;7.210;2023-10-09T12:46:21;100667.00;;;24.20
11424;BMP180;5768;51.476;7.210;2023-10-09T12:51:27;100655.00;;;24.30
11424;BMP180;5768;51.476;7.210;2023-10-09T12:56:31;100671.00;;;24.20
11424;BMP180;5768;51.476;7.210;2023-10-09T13:01:39;100670.00;;;24.20
11424;BMP180;5768;51.476;7.210;2023-10-09T13:06:46;100669.00;;;24.30
11424;BMP180;5768;51.476;7.210;2023-10-09T13:11:48;100675.00;;;24.40
11424;BMP180;5768;51.476;7.210;2023-10-09T13:16:51;100661.00;;;24.50
11424;BMP180;5768;51.476;7.210;2023-10-09T13:21:55;100651.00;;;24.50
11424;BMP180;5768;51.476;7.210;2023-10-09T13:26:58;100654.00;;;24.60
11424;BMP180;5768;51.476;7.210;2023-10-09T13:32:00;100660.00;;;25.00
11424;BMP180;5768;51.476;7.210;2023-10-09T13:37:05;100655.00;;;26.20
11424;BMP180;5768;51.476;7.210;2023-10-09T13:42:12;100654.00;;;26.60
11424;BMP180;5768;51.476;7.210;2023-10-09T13:47:15;100655.00;;;26.00
11424;BMP180;5768;51.476;7.210;2023-10-09T13:52:22;100646.00;;;25.60
11424;BMP180;5768;51.476;7.210;2023-10-09T13:57:25;100652.00;;;25.30
11424;BMP180;5768;51.476;7.210;2023-10-09T14:02:32;100644.00;;;25.20
11424;BMP180;5768;51.476;7.210;2023-10-09T14:07:36;100643.00;;;25.10
11424;BMP180;5768;51.476;7.210;2023-10-09T14:12:39;100640.00;;;24.80
11424;BMP180;5768;51.476;7.210;2023-10-09T14:17:43;100649.00;;;24.60
11424;BMP180;5768;51.476;7.210;2023-10-09T14:22:49;100650.00;;;24.30
11424;BMP180;5768;51.476;7.210;2023-10-09T14:27:54;100641.00;;;24.10
11424;BMP180;5768;51.476;7.210;2023-10-09T14:32:57;100649.00;;;23.90
11424;BMP180;5768;51.476;7.210;2023-10-09T14:38:00;100641.00;;;23.80
11424;BMP180;5768;51.476;7.210;2023-10-09T14:43:05;100648.00;;;23.80
11424;BMP180;5768;51.476;7.210;2023-10-09T14:48:08;100649.00;;;23.80
11424;BMP180;5768;51.476;7.210;2023-10-09T14:53:14;100647.00;;;23.70
11424;BMP180;5768;51.476;7.210;2023-10-09T14:58:16;100642.00;;;23.60
11424;BMP180;5768;51.476;7.210;2023-10-09T15:03:18;100652.00;;;23.60
11424;BMP180;5768;51.476;7.210;2023-10-09T15:08:22;100631.00;;;23.60
11424;BMP180;5768;51.476;7.210;2023-10-09T15:13:24;100617.00;;;23.40
11424;BMP180;5768;51.476;7.210;2023-10-09T15:18:29;100625.00;;;23.30
11424;BMP180;5768;51.476;7.210;2023-10-09T15:23:35;100623.00;;;23.10
11424;BMP180;5768;51.476;7.210;2023-10-09T15:28:38;100634.00;;;23.10
11424;BMP180;5768;51.476;7.210;2023-10-09T15:33:42;100632.00;;;23.00
11424;BMP180;5768;51.476;7.210;2023-10-09T15:38:46;100628.00;;;22.90
11424;BMP180;5768;51.476;7.210;2023-10-09T15:43:48;100632.00;;;22.90
11424;BMP180;5768;51.476;7.210;2023-10-09T15:48:52;100647.00;;;22.90
11424;BMP180;5768;51.476;7.210;2023-10-09T15:53:58;100644.00;;;22.90
11424;BMP180;5768;51.476;7.210;2023-10-09T15:59:02;100647.00;;;22.80
11424;BMP180;5768;51.476;7.210;2023-10-09T16:04:06;100648.00;;;22.70
11424;BMP180;5768;51.476;7.210;2023-10-09T16:09:12;100651.00;;;22.70
11424;BMP180;5768;51.476;7.210;2023-10-09T16:14:22;100655.00;;;22.70
11424;BMP180;5768;51.476;7.210;2023-10-09T16:19:24;100656.00;;;22.60
11424;BMP180;5768;51.476;7.210;2023-10-09T16:24:31;100661.00;;;22.60
11424;BMP180;5768;51.476;7.210;2023-10-09T16:29:36;100665.00;;;22.50
11424;BMP180;5768;51.476;7.210;2023-10-09T16:34:39;100667.00;;;22.40
11424;BMP180;5768;51.476;7.210;2023-10-09T16:39:43;100667.00;;;22.30
11424;BMP180;5768;51.476;7.210;2023-10-09T16:44:45;100673.00;;;22.30
11424;BMP180;5768;51.476;7.210;2023-10-09T16:49:48;100667.00;;;22.30
11424;BMP180;5768;51.476;7.210;2023-10-09T16:54:53;100677.00;;;22.20
11424;BMP180;5768;51.476;7.210;2023-10-09T16:59:58;100682.00;;;22.10
11424;BMP180;5768;51.476;7.210;2023-10-09T17:05:21;100685.00;;;22.00
11424;BMP180;5768;51.476;7.210;2023-10-09T17:10:44;100660.00;;;21.90
11424;BMP180;5768;51.476;7.210;2023-10-09T17:16:08;100681.00;;;21.70
11424;BMP180;5768;51.476;7.210;2023-10-09T17:21:31;100686.00;;;21.60
11424;BMP180;5768;51.476;7.210;2023-10-09T17:26:55;100696.00;;;21.60
11424;BMP180;5768;51.476;7.210;2023-10-09T17:32:14;100711.00;;;21.60
11424;BMP180;5768;51.476;7.210;2023-10-09T17:43:23;100712.00;;;21.60
11424;BMP180;5768;51.476;7.210;2023-10-09T17:48:53;100717.00;;;21.60
11424;BMP180;5768;51.476;7.210;2023-10-09T17:54:40;100722.00;;;21.60
11424;BMP180;5768;51.476;7.210;2023-10-09T17:59:55;100725.00;;;21.60
11424;BMP180;5768;51.476;7.210;2023-10-09T18:05:22;100732.00;;;21.50
11424;BMP180;5768;51.476;7.210;2023-10-09T18:10:56;100719.00;;;21.50
11424;BMP180;5768;51.476;7.210;2023-10-09T18:16:18;100713.00;;;21.50
11424;BMP180;5768;51.476;7.210;2023-10-09T18:21:38;100745.00;;;21.30
11424;BMP180;5768;51.476;7.210;2023-10-09T18:26:43;100727.00;;;21.30
11424;BMP180;5768;51.476;7.210;2023-10-09T18:32:12;100711.00;;;21.20
11424;BMP180;5768;51.476;7.210;2023-10-09T18:37:19;100727.00;;;21.20
11424;BMP180;5768;51.476;7.210;2023-10-09T18:42:31;100725.00;;;21.20
11424;BMP180;5768;51.476;7.210;2023-10-09T18:47:55;100732.00;;;21.10
11424;BMP180;5768;51.476;7.210;2023-10-09T18:53:12;100718.00;;;21.20
11424;BMP180;5768;51.476;7.210;2023-10-09T18:58:15;100715.00;;;21.10
11424;BMP180;5768;51.476;7.210;2023-10-09T19:03:22;100726.00;;;21.00
11424;BMP180;5768;51.476;7.210;2023-10-09T19:08:26;100729.00;;;20.90
11424;BMP180;5768;51.476;7.210;2023-10-09T19:13:33;100717.00;;;20.90
11424;BMP180;5768;51.476;7.210;2023-10-09T19:18:44;100721.00;;;20.90
11424;BMP180;5768;51.476;7.210;2023-10-09T19:23:53;100727.00;;;20.90
11424;BMP180;5768;51.476;7.210;2023-10-09T19:29:14;100725.00;;;20.90
11424;BMP180;5768;51.476;7.210;2023-10-09T19:34:20;100732.00;;;20.90
11424;BMP180;5768;51.476;7.210;2023-10-09T19:39:22;100728.00;;;20.90
11424;BMP180;5768;51.476;7.210;2023-10-09T19:44:25;100741.00;;;20.90
11424;BMP180;5768;51.476;7.210;2023-10-09T19:49:31;100711.00;;;20.70
11424;BMP180;5768;51.476;7.210;2023-10-09T19:54:33;100732.00;;;20.60
11424;BMP180;5768;51.476;7.210;2023-10-09T19:59:38;100740.00;;;20.50
11424;BMP180;5768;51.476;7.210;2023-10-09T20:04:42;100745.00;;;20.40
11424;BMP180;5768;51.476;7.210;2023-10-09T20:09:44;100750.00;;;20.30
11424;BMP180;5768;51.476;7.210;2023-10-09T20:14:47;100745.00;;;20.30
11424;BMP180;5768;51.476;7.210;2023-10-09T20:19:51;100756.00;;;20.10
11424;BMP180;5768;51.476;7.210;2023-10-09T20:24:54;100749.00;;;20.10
11424;BMP180;5768;51.476;7.210;2023-10-09T20:29:57;100746.00;;;20.00
11424;BMP180;5768;51.476;7.210;2023-10-09T20:35:01;100758.00;;;20.00
11424;BMP180;5768;51.476;7.210;2023-10-09T20:40:12;100759.00;;;20.00
11424;BMP180;5768;51.476;7.210;2023-10-09T20:45:19;100759.00;;;20.00
11424;BMP180;5768;51.476;7.210;2023-10-09T20:50:25;100770.00;;;19.90
11424;BMP180;5768;51.476;7.210;2023-10-09T20:55:27;100761.00;;;19.90
11424;BMP180;5768;51.476;7.210;2023-10-09T21:00:30;100763.00;;;19.90
11424;BMP180;5768;51.476;7.210;2023-10-09T21:05:34;100775.00;;;20.00
11424;BMP180;5768;51.476;7.210;2023-10-09T21:10:37;100771.00;;;20.10
11424;BMP180;5768;51.476;7.210;2023-10-09T21:15:41;100781.00;;;20.00
11424;BMP180;5768;51.476;7.210;2023-10-09T21:20:47;100777.00;;;20.00
11424;BMP180;5768;51.476;7.210;2023-10-09T21:25:50;100772.00;;;20.10
11424;BMP180;5768;51.476;7.210;2023-10-09T21:30:52;100774.00;;;20.10
11424;BMP180;5768;51.476;7.210;2023-10-09T21:35:56;100771.00;;;20.10
11424;BMP180;5768;51.476;7.210;2023-10-09T21:40:59;100773.00;;;20.10
11424;BMP180;5768;51.476;7.210;2023-10-09T21:46:02;100775.00;;;20.00
11424;BMP180;5768;51.476;7.210;2023-10-09T21:51:06;100771.00;;;20.00
11424;BMP180;5768;51.476;7.210;2023-10-09T21:56:10;100772.00;;;20.10
11424;BMP180;5768;51.476;7.210;2023-10-09T22:01:14;100780.00;;;20.10
11424;BMP180;5768;51.476;7.210;2023-10-09T22:06:23;100773.00;;;20.00
11424;BMP180;5768;51.476;7.210;2023-10-09T22:11:26;100785.00;;;20.00
11424;BMP180;5768;51.476;7.210;2023-10-09T22:16:29;100783.00;;;20.10
11424;BMP180;5768;51.476;7.210;2023-10-09T22:21:33;100774.00;;;20.10
11424;BMP180;5768;51.476;7.210;2023-10-09T22:26:37;100773.00;;;20.10
11424;BMP180;5768;51.476;7.210;2023-10-09T22:31:40;100771.00;;;20.10
11424;BMP180;5768;51.476;7.210;2023-10-09T22:36:48;100769.00;;;20.10
11424;BMP180;5768;51.476;7.210;2023-10-09T22:41:54;100764.00;;;20.10
11424;BMP180;5768;51.476;7.210;2023-10-09T22:46:57;100764.00;;;20.00
11424;BMP180;5768;51.476;7.210;2023-10-09T22:52:07;100775.00;;;19.90
11424;BMP180;5768;51.476;7.210;2023-10-09T22:57:14;100767.00;;;19.80
11424;BMP180;5768;51.476;7.210;2023-10-09T23:02:17;100772.00;;;19.70
11424;BMP180;5768;51.476;7.210;2023-10-09T23:07:40;100772.00;;;19.80
11424;BMP180;5768;51.476;7.210;2023-10-09T23:12:44;100776.00;;;19.70
11424;BMP180;5768;51.476;7.210;2023-10-09T23:17:49;100768.00;;;19.70
11424;BMP180;5768;51.476;7.210;2023-10-09T23:22:53;100763.00;;;19.60
11424;BMP180;5768;51.476;7.210;2023-10-09T23:27:59;100763.00;;;19.50
11424;BMP180;5768;51.476;7.210;2023-10-09T23:33:36;100751.00;;;19.50
11424;BMP180;5768;51.476;7.210;2023-10-09T23:38:40;100770.00;;;19.60
11424;BMP180;5768;51.476;7.210;2023-10-09T23:44:04;100764.00;;;19.60
11424;BMP180;5768;51.476;7.210;2023-10-09T23:49:09;100767.00;;;19.60
11424;BMP180;5768;51.476;7.210;2023-10-09T23:54:20;100758.00;;;19.60
11424;BMP180;5768;51.476;7.210;2023-10-09T23:59:25;100760.00;;;19.60
